createdAt,value
2023-02-19T04:32:55.987Z,79.20
2023-02-19T04:43:31.889Z,79.40
2023-02-19T04:54:07.900Z,80.00
2023-02-19T05:04:43.688Z,80.00
2023-02-19T05:15:19.042Z,79.50
2023-02-19T05:25:54.824Z,79.30
2023-02-19T05:36:30.524Z,80.60
2023-02-19T05:47:06.668Z,82.80
2023-02-19T05:57:44.264Z,80.70
2023-02-19T06:08:20.169Z,85.00
2023-02-19T06:18:56.304Z,99.50
2023-02-19T06:29:32.586Z,99.90
2023-02-19T06:40:08.752Z,99.90
2023-02-19T06:50:44.341Z,99.90
2023-02-19T07:01:20.137Z,99.90
2023-02-19T07:11:55.629Z,99.90
2023-02-19T07:22:31.072Z,99.90
2023-02-19T07:33:08.592Z,99.90
2023-02-19T07:43:45.664Z,99.90
2023-02-19T07:54:21.236Z,99.90
2023-02-19T08:04:56.867Z,98.40
2023-02-19T08:15:33.123Z,88.00
2023-02-19T08:26:09.814Z,82.80
2023-02-19T08:36:45.452Z,76.50
2023-02-19T08:47:21.175Z,69.40
2023-02-19T08:57:57.157Z,69.40
2023-02-19T09:08:33.008Z,65.30
2023-02-19T09:19:08.773Z,66.30
2023-02-19T09:29:45.207Z,66.90
2023-02-19T09:40:21.777Z,58.60
2023-02-19T09:50:59.376Z,55.70
2023-02-19T10:01:39.309Z,54.40
2023-02-19T10:12:19.158Z,51.40
2023-02-19T10:23:03.110Z,46.80
2023-02-19T10:33:50.343Z,42.90
2023-02-19T10:44:29.026Z,39.50
2023-02-19T10:55:20.693Z,39.90
2023-02-19T11:06:04.589Z,39.00
2023-02-19T11:17:04.015Z,36.10
2023-02-19T11:27:58.053Z,36.20
2023-02-19T11:38:33.556Z,37.50
2023-02-19T11:49:09.175Z,33.60
2023-02-19T12:00:00.194Z,33.60
2023-02-19T12:11:10.846Z,28.10
2023-02-19T12:21:57.509Z,28.70
2023-02-19T12:32:54.173Z,31.30
2023-02-19T12:43:31.478Z,27.00
2023-02-19T12:54:35.402Z,29.10
2023-02-19T13:05:20.635Z,28.90
2023-02-19T13:16:02.305Z,29.30
2023-02-19T13:26:58.197Z,31.40
2023-02-19T13:37:35.082Z,25.80
2023-02-19T13:48:15.488Z,26.40
2023-02-19T13:59:01.430Z,27.70
2023-02-19T14:09:37.083Z,27.00
2023-02-19T14:20:15.736Z,27.20
2023-02-19T14:30:55.816Z,29.00
2023-02-19T14:41:38.071Z,28.80
2023-02-19T14:52:24.774Z,28.20
2023-02-19T15:03:02.415Z,28.80
2023-02-19T15:13:45.360Z,30.10
2023-02-19T15:24:21.543Z,30.40
2023-02-19T15:35:02.806Z,30.80
2023-02-19T15:45:45.136Z,31.80
2023-02-19T15:56:29.312Z,33.50
2023-02-19T16:07:05.612Z,34.10
2023-02-19T16:17:44.894Z,53.00
2023-02-19T16:28:25.597Z,67.00
2023-02-19T16:39:07.188Z,74.30
2023-02-19T16:49:44.068Z,85.50
2023-02-19T17:00:21.141Z,86.40
2023-02-19T17:10:57.601Z,82.00
2023-02-19T17:21:34.202Z,75.90
2023-02-19T17:32:09.834Z,65.20
2023-02-19T17:42:46.554Z,56.70
2023-02-19T17:53:22.414Z,55.10
2023-02-19T18:03:58.433Z,55.70
2023-02-19T18:14:33.968Z,55.80
2023-02-19T18:25:10.754Z,55.70
2023-02-19T18:35:49.140Z,59.40
2023-02-19T18:46:24.663Z,60.60
2023-02-19T18:57:01.705Z,56.50
2023-02-19T19:07:37.084Z,55.60
2023-02-19T19:18:12.621Z,57.80
2023-02-19T19:28:48.296Z,58.70
2023-02-19T19:39:24.132Z,59.50
2023-02-19T19:50:00.039Z,59.40
2023-02-19T20:00:36.049Z,58.00
2023-02-19T20:11:12.131Z,57.90
2023-02-19T20:21:50.948Z,59.10
2023-02-19T20:32:26.601Z,61.30
2023-02-19T20:43:02.984Z,63.20
2023-02-19T20:53:40.588Z,66.40
2023-02-19T21:04:17.652Z,71.40
2023-02-19T21:14:53.425Z,71.60
2023-02-19T21:25:31.323Z,74.70
2023-02-19T21:36:07.089Z,77.80
2023-02-19T21:46:42.760Z,81.30
2023-02-19T21:57:18.605Z,81.00
2023-02-19T22:07:54.410Z,80.30
2023-02-19T22:18:29.947Z,77.30
2023-02-19T22:29:07.931Z,78.50
